createdAt,value
2022-11-27T00:01:27.942Z,5.90
2022-11-27T00:03:55.970Z,5.60
2022-11-27T00:06:25.752Z,5.77
2022-11-27T00:08:54.587Z,5.81
2022-11-27T00:11:23.975Z,5.68
2022-11-27T00:13:51.803Z,5.39
2022-11-27T00:16:20.051Z,5.28
2022-11-27T00:18:47.725Z,5.32
2022-11-27T00:21:17.316Z,5.36
2022-11-27T00:23:45.132Z,5.15
2022-11-27T00:26:15.176Z,5.14
2022-11-27T00:28:42.895Z,5.01
2022-11-27T00:31:14.688Z,4.94
2022-11-27T00:33:42.189Z,4.90
2022-11-27T00:36:10.781Z,4.97
2022-11-27T00:38:39.284Z,4.96
2022-11-27T00:41:07.781Z,4.92
2022-11-27T00:43:44.141Z,4.98
2022-11-27T00:46:12.932Z,4.89
2022-11-27T00:48:40.363Z,4.88
2022-11-27T00:51:09.866Z,4.72
2022-11-27T00:53:37.348Z,4.71
2022-11-27T00:56:05.567Z,4.79
2022-11-27T00:58:33.211Z,4.90
2022-11-27T01:01:03.516Z,4.72
2022-11-27T01:03:31.683Z,4.82
2022-11-27T01:06:03.389Z,4.68
2022-11-27T01:08:30.844Z,4.70
2022-11-27T01:10:59.432Z,4.50
2022-11-27T01:13:28.315Z,4.62
2022-11-27T01:16:00.176Z,4.67
2022-11-27T01:18:29.396Z,4.66
2022-11-27T01:20:57.302Z,4.38
2022-11-27T01:23:25.315Z,4.45
2022-11-27T01:25:53.635Z,4.58
2022-11-27T01:28:21.663Z,4.52
2022-11-27T01:30:49.618Z,4.51
2022-11-27T01:33:17.118Z,4.46
2022-11-27T01:35:54.328Z,4.36
2022-11-27T01:38:21.868Z,4.18
2022-11-27T01:40:49.363Z,4.17
2022-11-27T01:43:17.282Z,4.26
2022-11-27T01:45:45.112Z,4.25
2022-11-27T01:48:13.992Z,4.04
2022-11-27T01:50:41.703Z,3.87
2022-11-27T01:53:14.811Z,3.61
2022-11-27T01:55:46.104Z,3.35
2022-11-27T01:58:20.995Z,3.29
2022-11-27T02:00:48.423Z,3.55
2022-11-27T02:03:16.201Z,3.77
2022-11-27T02:05:43.812Z,3.86
2022-11-27T02:08:16.005Z,4.09
2022-11-27T02:10:49.415Z,4.02
2022-11-27T02:13:21.640Z,4.19
2022-11-27T02:15:53.364Z,3.96
2022-11-27T02:18:27.421Z,4.16
2022-11-27T02:20:59.220Z,4.16
2022-11-27T02:24:08.107Z,4.18
2022-11-27T02:26:53.998Z,4.25
2022-11-27T02:29:24.067Z,4.21
2022-11-27T02:31:58.768Z,4.16
2022-11-27T02:34:28.775Z,4.30
2022-11-27T02:37:01.322Z,4.19
2022-11-27T02:39:32.717Z,4.25
2022-11-27T02:42:05.835Z,4.27
2022-11-27T02:44:37.274Z,4.32
2022-11-27T02:47:05.175Z,4.36
2022-11-27T02:49:32.776Z,4.32
2022-11-27T02:52:02.239Z,4.38
2022-11-27T02:54:31.503Z,4.34
2022-11-27T02:57:02.226Z,4.36
2022-11-27T02:59:31.563Z,4.32
2022-11-27T03:02:03.903Z,4.32
2022-11-27T03:04:34.481Z,4.28
2022-11-27T03:07:05.112Z,4.38
2022-11-27T03:09:35.804Z,4.29
2022-11-27T03:12:03.869Z,4.25
2022-11-27T03:14:31.802Z,4.32
2022-11-27T03:17:04.112Z,4.38
2022-11-27T03:19:40.127Z,4.43
2022-11-27T03:22:07.768Z,4.39
2022-11-27T03:24:36.332Z,4.45
2022-11-27T03:27:04.828Z,4.24
2022-11-27T03:29:35.983Z,4.40
2022-11-27T03:32:05.664Z,4.37
2022-11-27T03:34:33.718Z,4.37
2022-11-27T03:37:01.526Z,4.29
2022-11-27T03:39:30.685Z,4.29
2022-11-27T03:42:03.669Z,4.37
2022-11-27T03:44:33.935Z,4.38
2022-11-27T03:47:09.425Z,4.42
2022-11-27T03:49:44.758Z,4.32
2022-11-27T03:52:18.531Z,4.25
2022-11-27T03:54:54.555Z,4.26
2022-11-27T03:57:25.208Z,4.50
2022-11-27T03:59:55.692Z,4.26
2022-11-27T04:02:31.427Z,4.08
2022-11-27T04:04:58.877Z,3.93
2022-11-27T04:07:26.331Z,3.86
2022-11-27T04:09:53.756Z,4.11
2022-11-27T04:12:21.155Z,4.10
2022-11-27T04:14:48.599Z,4.13
2022-11-27T04:17:16.015Z,3.93
2022-11-27T04:19:44.774Z,3.95
2022-11-27T04:22:12.180Z,3.71
2022-11-27T04:24:39.874Z,3.60
2022-11-27T04:27:07.584Z,3.41
2022-11-27T04:29:36.431Z,3.40
2022-11-27T04:32:03.892Z,3.40
2022-11-27T04:34:31.375Z,3.21
2022-11-27T04:37:00.215Z,3.34
2022-11-27T04:39:27.946Z,3.06
2022-11-27T04:41:55.387Z,3.11
2022-11-27T04:44:23.067Z,3.15
2022-11-27T04:46:50.827Z,3.19
2022-11-27T04:49:18.358Z,3.20
2022-11-27T04:51:45.821Z,3.11
2022-11-27T04:54:14.678Z,2.89
2022-11-27T04:56:42.175Z,2.98
2022-11-27T04:59:09.590Z,2.54
2022-11-27T05:01:37.098Z,2.92
2022-11-27T05:04:04.770Z,2.95
2022-11-27T05:06:32.213Z,2.67
2022-11-27T05:09:01.975Z,2.51
2022-11-27T05:11:31.908Z,2.53
2022-11-27T05:14:13.359Z,2.60
2022-11-27T05:16:40.854Z,2.46
2022-11-27T05:19:09.828Z,2.56
2022-11-27T05:21:37.665Z,2.39
2022-11-27T05:24:05.909Z,2.33
2022-11-27T05:26:35.109Z,2.50
2022-11-27T05:29:03.578Z,2.64
2022-11-27T05:31:31.065Z,3.08
2022-11-27T05:33:58.541Z,3.41
2022-11-27T05:36:26.022Z,3.63
2022-11-27T05:38:53.515Z,3.90
2022-11-27T05:41:21.281Z,3.90
2022-11-27T05:43:50.043Z,4.13
2022-11-27T05:46:19.807Z,4.23
2022-11-27T05:48:47.341Z,4.18
2022-11-27T05:51:15.193Z,4.20
2022-11-27T05:53:42.932Z,4.29
2022-11-27T05:56:12.147Z,4.30
2022-11-27T05:58:40.490Z,4.27
2022-11-27T06:01:10.439Z,4.30
2022-11-27T06:03:38.881Z,4.32
2022-11-27T06:06:07.521Z,4.33
2022-11-27T06:08:35.112Z,4.42
2022-11-27T06:11:07.217Z,4.44
2022-11-27T06:13:34.644Z,4.45
2022-11-27T06:16:06.054Z,4.38
2022-11-27T06:18:35.248Z,4.45
2022-11-27T06:21:07.124Z,4.42
2022-11-27T06:23:34.732Z,4.48
2022-11-27T06:26:11.282Z,4.46
2022-11-27T06:28:38.867Z,4.38
2022-11-27T06:31:10.843Z,4.33
2022-11-27T06:33:43.373Z,4.40
2022-11-27T06:36:11.351Z,4.41
2022-11-27T06:38:39.354Z,4.45
2022-11-27T06:41:08.618Z,4.50
2022-11-27T06:43:36.473Z,4.55
2022-11-27T06:46:05.759Z,4.48
2022-11-27T06:48:33.629Z,4.49
2022-11-27T06:51:02.622Z,4.62
2022-11-27T06:53:30.709Z,4.58
2022-11-27T06:55:58.452Z,4.53
2022-11-27T06:58:30.895Z,4.52
2022-11-27T07:00:59.449Z,4.63
2022-11-27T07:03:27.191Z,4.54
2022-11-27T07:05:55.071Z,4.57
2022-11-27T07:08:23.850Z,4.57
2022-11-27T07:10:51.320Z,4.67
2022-11-27T07:13:18.771Z,4.67
2022-11-27T07:15:46.163Z,4.66
2022-11-27T07:18:13.590Z,4.66
2022-11-27T07:20:41.135Z,4.76
2022-11-27T07:23:08.533Z,4.73
2022-11-27T07:25:38.327Z,4.79
2022-11-27T07:28:05.787Z,4.77
2022-11-27T07:30:33.217Z,4.77
2022-11-27T07:33:00.600Z,4.75
2022-11-27T07:35:28.020Z,4.81
2022-11-27T07:37:55.531Z,4.79
2022-11-27T07:40:23.252Z,4.90
2022-11-27T07:42:52.027Z,4.90
2022-11-27T07:45:20.277Z,4.81
2022-11-27T07:47:47.746Z,4.81
2022-11-27T07:50:15.191Z,4.86
2022-11-27T07:52:42.647Z,4.92
2022-11-27T07:55:10.525Z,4.86
2022-11-27T07:57:37.978Z,4.97
2022-11-27T08:00:08.254Z,5.01
2022-11-27T08:02:35.800Z,5.01
2022-11-27T08:05:08.117Z,5.04
2022-11-27T08:07:38.573Z,5.01
2022-11-27T08:10:07.077Z,5.03
2022-11-27T08:12:34.522Z,5.10
2022-11-27T08:15:04.479Z,5.18
2022-11-27T08:17:33.290Z,5.21
2022-11-27T08:20:00.748Z,5.22
2022-11-27T08:22:28.210Z,5.39
2022-11-27T08:24:55.707Z,5.51
2022-11-27T08:27:23.131Z,5.61
2022-11-27T08:29:50.554Z,5.59
2022-11-27T08:32:18.012Z,5.60
2022-11-27T08:34:46.894Z,5.67
2022-11-27T08:37:14.309Z,5.63
2022-11-27T08:39:41.775Z,5.71
2022-11-27T08:42:09.227Z,5.73
2022-11-27T08:44:36.639Z,5.79
2022-11-27T08:47:04.051Z,5.87
2022-11-27T08:49:31.543Z,5.92
2022-11-27T08:52:00.301Z,6.02
2022-11-27T08:54:27.869Z,5.92
2022-11-27T08:56:55.353Z,6.02
2022-11-27T08:59:22.946Z,6.12
2022-11-27T09:01:50.424Z,6.27
2022-11-27T09:04:18.036Z,6.39
2022-11-27T09:06:45.603Z,6.53
2022-11-27T09:09:14.335Z,6.53
2022-11-27T09:11:41.994Z,6.50
2022-11-27T09:14:10.436Z,6.59
2022-11-27T09:16:37.965Z,6.61
2022-11-27T09:19:05.497Z,6.61
2022-11-27T09:21:32.879Z,6.74
2022-11-27T09:24:02.109Z,6.55
2022-11-27T09:26:31.390Z,6.66
2022-11-27T09:28:59.567Z,6.60
2022-11-27T09:31:27.139Z,6.69
2022-11-27T09:33:54.702Z,6.74
2022-11-27T09:36:23.773Z,6.76
2022-11-27T09:38:51.507Z,6.89
2022-11-27T09:41:32.855Z,6.81
2022-11-27T09:44:06.412Z,6.86
2022-11-27T09:46:36.880Z,6.94
2022-11-27T09:49:07.710Z,7.05
2022-11-27T09:51:38.920Z,7.09
2022-11-27T09:54:09.736Z,7.26
2022-11-27T09:56:37.356Z,7.32
2022-11-27T09:59:15.762Z,7.52
2022-11-27T10:01:49.359Z,7.61
2022-11-27T10:04:20.256Z,7.62
2022-11-27T10:07:00.422Z,7.70
2022-11-27T10:09:36.871Z,7.62
2022-11-27T10:12:08.728Z,7.74
2022-11-27T10:14:48.008Z,7.64
2022-11-27T10:17:16.923Z,7.70
2022-11-27T10:19:50.014Z,7.67
2022-11-27T10:22:21.616Z,7.69
2022-11-27T10:24:57.544Z,7.73
2022-11-27T10:27:28.857Z,7.84
2022-11-27T10:29:58.549Z,7.88
2022-11-27T10:32:54.049Z,7.88
2022-11-27T10:35:19.312Z,7.94
2022-11-27T10:37:48.604Z,8.06
2022-11-27T10:40:22.144Z,8.03
2022-11-27T10:42:53.025Z,8.08
2022-11-27T10:45:24.780Z,8.03
2022-11-27T10:47:52.586Z,8.26
2022-11-27T10:50:20.878Z,8.29
2022-11-27T10:52:53.343Z,8.35
2022-11-27T10:55:29.670Z,8.48
2022-11-27T10:58:04.409Z,8.64
2022-11-27T11:00:33.276Z,8.65
2022-11-27T11:03:01.660Z,8.69
2022-11-27T11:05:50.493Z,8.81
2022-11-27T11:08:20.187Z,9.00
2022-11-27T11:10:52.546Z,9.05
2022-11-27T11:13:22.391Z,9.03
2022-11-27T11:15:57.134Z,9.00
2022-11-27T11:18:26.308Z,9.13
2022-11-27T11:20:56.007Z,9.20
2022-11-27T11:23:32.674Z,9.11
2022-11-27T11:26:06.519Z,9.27
2022-11-27T11:28:40.847Z,9.24
2022-11-27T11:31:18.129Z,9.41
2022-11-27T11:33:52.130Z,9.44
2022-11-27T11:36:20.170Z,9.66
2022-11-27T11:38:48.296Z,9.59
2022-11-27T11:41:18.012Z,9.68
2022-11-27T11:43:55.064Z,9.58
2022-11-27T11:46:27.977Z,9.65
2022-11-27T11:48:57.567Z,9.61
2022-11-27T11:51:43.265Z,9.66
2022-11-27T11:54:21.470Z,9.80
2022-11-27T11:56:52.360Z,9.63
2022-11-27T11:59:27.342Z,9.57
2022-11-27T12:02:07.326Z,9.59
2022-11-27T12:04:46.059Z,9.58
2022-11-27T12:07:21.961Z,9.57
2022-11-27T12:09:55.865Z,9.67
2022-11-27T12:12:30.853Z,9.72
2022-11-27T12:15:03.344Z,9.54
2022-11-27T12:17:44.377Z,9.67
2022-11-27T12:20:18.437Z,9.64
2022-11-27T12:23:22.149Z,9.61
2022-11-27T12:25:55.914Z,9.63
2022-11-27T12:28:39.780Z,9.80
2022-11-27T12:31:12.879Z,9.80
2022-11-27T12:33:57.578Z,9.73
2022-11-27T12:36:34.732Z,9.74
2022-11-27T12:39:13.304Z,9.76
2022-11-27T12:41:52.284Z,9.79
2022-11-27T12:44:26.302Z,9.79
2022-11-27T12:46:58.581Z,9.88
2022-11-27T12:49:33.990Z,9.89
2022-11-27T12:52:07.039Z,9.74
2022-11-27T12:54:39.314Z,9.90
2022-11-27T12:57:15.317Z,9.82
2022-11-27T12:59:56.183Z,9.85
2022-11-27T13:02:29.582Z,9.86
2022-11-27T13:05:02.266Z,9.85
2022-11-27T13:07:38.484Z,9.74
2022-11-27T13:10:12.919Z,9.80
2022-11-27T13:12:44.406Z,9.80
2022-11-27T13:15:18.105Z,9.83
2022-11-27T13:17:46.541Z,9.91
2022-11-27T13:20:17.471Z,9.77
2022-11-27T13:22:45.036Z,9.78
2022-11-27T13:25:14.577Z,9.83
2022-11-27T13:27:44.855Z,9.81
2022-11-27T13:30:20.365Z,9.55
2022-11-27T13:32:50.611Z,9.61
2022-11-27T13:35:24.423Z,9.69
2022-11-27T13:37:57.449Z,9.59
2022-11-27T13:40:29.364Z,9.43
2022-11-27T13:42:57.627Z,9.37
2022-11-27T13:45:28.035Z,9.27
2022-11-27T13:47:56.843Z,9.28
2022-11-27T13:50:31.123Z,9.27
2022-11-27T13:53:03.155Z,9.20
2022-11-27T13:55:32.403Z,9.17
2022-11-27T13:58:02.539Z,9.13
2022-11-27T14:00:35.756Z,9.11
2022-11-27T14:03:03.474Z,9.17
2022-11-27T14:05:41.398Z,9.04
2022-11-27T14:08:19.303Z,9.08
2022-11-27T14:10:52.607Z,9.05
2022-11-27T14:13:23.554Z,9.07
2022-11-27T14:16:01.584Z,8.98
2022-11-27T14:18:30.757Z,9.07
2022-11-27T14:21:01.879Z,9.01
2022-11-27T14:23:31.381Z,9.01
2022-11-27T14:26:03.321Z,8.96
2022-11-27T14:28:31.801Z,9.02
2022-11-27T14:31:00.639Z,9.00
2022-11-27T14:33:31.188Z,9.03
2022-11-27T14:36:02.062Z,8.99
2022-11-27T14:38:31.492Z,8.95
2022-11-27T14:41:09.388Z,9.03
2022-11-27T14:43:36.814Z,8.93
2022-11-27T14:46:05.715Z,8.93
2022-11-27T14:48:36.979Z,9.02
2022-11-27T14:51:05.981Z,8.97
2022-11-27T14:53:33.475Z,9.00
2022-11-27T14:56:00.983Z,8.98
2022-11-27T14:58:29.703Z,8.96
2022-11-27T15:01:00.481Z,8.92
2022-11-27T15:03:28.498Z,8.92
2022-11-27T15:05:58.578Z,8.96
2022-11-27T15:08:28.111Z,8.92
2022-11-27T15:10:57.275Z,8.83
2022-11-27T15:13:26.323Z,8.88
2022-11-27T15:15:56.955Z,8.83
2022-11-27T15:18:24.824Z,8.78
2022-11-27T15:20:52.982Z,8.79
2022-11-27T15:23:22.297Z,8.80
2022-11-27T15:25:53.507Z,8.78
2022-11-27T15:28:35.042Z,8.78
2022-11-27T15:31:04.194Z,8.78
2022-11-27T15:33:33.431Z,8.70
2022-11-27T15:36:16.499Z,8.73
2022-11-27T15:38:45.338Z,8.80
2022-11-27T15:41:23.481Z,8.74
2022-11-27T15:43:50.935Z,8.77
2022-11-27T15:46:23.872Z,8.72
2022-11-27T15:48:51.653Z,8.74
2022-11-27T15:51:20.995Z,8.71
2022-11-27T15:53:48.703Z,8.77
2022-11-27T15:56:16.591Z,8.71
2022-11-27T15:58:45.347Z,8.67
2022-11-27T16:01:12.892Z,8.63
2022-11-27T16:03:40.847Z,8.71
2022-11-27T16:06:11.282Z,8.70
2022-11-27T16:08:38.769Z,8.66
2022-11-27T16:11:08.353Z,8.65
2022-11-27T16:13:35.811Z,8.63
2022-11-27T16:16:06.046Z,8.65
2022-11-27T16:18:34.276Z,8.61
2022-11-27T16:21:03.468Z,8.48
2022-11-27T16:23:30.885Z,8.49
2022-11-27T16:25:59.112Z,8.53
2022-11-27T16:28:26.898Z,8.51
2022-11-27T16:30:54.579Z,8.48
2022-11-27T16:33:26.195Z,8.46
2022-11-27T16:35:54.029Z,8.48
2022-11-27T16:38:21.900Z,8.44
2022-11-27T16:40:49.827Z,8.40
2022-11-27T16:43:18.422Z,8.53
2022-11-27T16:45:45.874Z,8.52
2022-11-27T16:48:13.435Z,8.48
2022-11-27T16:50:42.222Z,8.45
2022-11-27T16:53:10.224Z,8.56
2022-11-27T16:55:38.529Z,8.44
2022-11-27T16:58:06.032Z,8.55
2022-11-27T17:00:33.656Z,8.44
2022-11-27T17:03:01.083Z,8.38
2022-11-27T17:05:28.535Z,8.40
2022-11-27T17:07:57.346Z,8.35
2022-11-27T17:10:24.923Z,8.39
2022-11-27T17:12:52.337Z,8.39
2022-11-27T17:15:20.003Z,8.41
2022-11-27T17:17:48.029Z,8.47
2022-11-27T17:20:15.462Z,8.46
2022-11-27T17:22:44.194Z,8.49
2022-11-27T17:25:13.060Z,8.48
2022-11-27T17:27:41.394Z,8.51
2022-11-27T17:30:09.734Z,8.41
2022-11-27T17:32:37.182Z,8.49
2022-11-27T17:35:07.171Z,8.42
2022-11-27T17:37:34.900Z,8.41
2022-11-27T17:40:02.943Z,8.49
2022-11-27T17:42:31.744Z,8.43
2022-11-27T17:44:59.213Z,8.40
2022-11-27T17:47:26.732Z,8.41
2022-11-27T17:49:54.854Z,8.48
2022-11-27T17:52:22.283Z,8.50
2022-11-27T17:54:49.846Z,8.43
2022-11-27T17:57:17.419Z,8.54
2022-11-27T17:59:46.189Z,8.47
2022-11-27T18:02:13.712Z,8.54
2022-11-27T18:04:41.241Z,8.60
2022-11-27T18:07:08.782Z,8.63
2022-11-27T18:09:36.583Z,8.57
2022-11-27T18:12:06.296Z,8.46
2022-11-27T18:14:34.171Z,8.59
2022-11-27T18:17:04.747Z,8.58
2022-11-27T18:19:32.477Z,8.61
2022-11-27T18:22:00.203Z,8.58
2022-11-27T18:24:28.223Z,8.67
2022-11-27T18:27:11.319Z,8.62
2022-11-27T18:29:40.570Z,8.64
2022-11-27T18:32:09.879Z,8.55
2022-11-27T18:34:37.450Z,8.39
2022-11-27T18:37:04.965Z,8.44
2022-11-27T18:39:32.456Z,8.41
2022-11-27T18:41:59.980Z,8.33
2022-11-27T18:44:27.675Z,8.46
2022-11-27T18:46:55.678Z,8.55
2022-11-27T18:49:25.128Z,8.46
2022-11-27T18:51:53.809Z,8.43
2022-11-27T18:54:22.182Z,8.37
2022-11-27T18:56:49.624Z,8.47
2022-11-27T18:59:17.495Z,8.55
2022-11-27T19:01:45.741Z,8.42
2022-11-27T19:04:14.864Z,8.40
2022-11-27T19:06:44.377Z,8.44
2022-11-27T19:09:13.336Z,8.42
2022-11-27T19:11:42.392Z,8.32
2022-11-27T19:14:09.963Z,8.32
2022-11-27T19:16:43.708Z,8.33
2022-11-27T19:19:52.233Z,8.35
2022-11-27T19:22:02.768Z,8.29
2022-11-27T19:24:30.638Z,8.36
2022-11-27T19:26:58.550Z,8.37
2022-11-27T19:29:26.143Z,8.28
2022-11-27T19:31:55.028Z,8.25
2022-11-27T19:34:22.721Z,8.43
2022-11-27T19:36:50.288Z,8.47
2022-11-27T19:39:19.183Z,8.29
2022-11-27T19:41:49.128Z,8.35
2022-11-27T19:44:17.390Z,8.24
2022-11-27T19:46:46.483Z,8.22
2022-11-27T19:49:16.661Z,8.37
2022-11-27T19:51:44.494Z,8.29
2022-11-27T19:54:14.009Z,8.29
2022-11-27T19:56:43.183Z,8.14
2022-11-27T19:59:12.089Z,8.20
2022-11-27T20:01:41.031Z,8.21
2022-11-27T20:04:10.788Z,8.12
2022-11-27T20:06:39.236Z,8.22
2022-11-27T20:09:07.641Z,8.10
2022-11-27T20:11:36.282Z,8.06
2022-11-27T20:14:07.368Z,8.04
2022-11-27T20:16:36.232Z,7.87
2022-11-27T20:19:05.227Z,7.97
2022-11-27T20:21:34.390Z,7.70
2022-11-27T20:24:03.522Z,7.66
2022-11-27T20:26:31.288Z,7.63
2022-11-27T20:28:59.924Z,7.55
2022-11-27T20:31:30.827Z,7.46
2022-11-27T20:34:01.439Z,7.36
2022-11-27T20:36:29.971Z,7.34
2022-11-27T20:38:59.419Z,7.43
2022-11-27T20:41:27.554Z,7.38
2022-11-27T20:43:57.609Z,7.31
2022-11-27T20:46:25.700Z,7.29
2022-11-27T20:48:54.971Z,7.33
2022-11-27T20:51:28.276Z,7.31
2022-11-27T20:53:57.739Z,7.27
2022-11-27T20:56:26.035Z,7.24
2022-11-27T20:58:54.065Z,7.27
2022-11-27T21:01:24.613Z,7.24
2022-11-27T21:03:55.950Z,7.15
2022-11-27T21:06:26.391Z,7.07
2022-11-27T21:08:55.121Z,6.99
2022-11-27T21:11:24.877Z,6.88
2022-11-27T21:13:53.120Z,6.90
2022-11-27T21:16:20.851Z,6.79
2022-11-27T21:18:48.363Z,6.82
2022-11-27T21:21:17.269Z,6.77
2022-11-27T21:23:44.711Z,6.77
2022-11-27T21:26:12.335Z,6.69
2022-11-27T21:28:39.776Z,6.76
2022-11-27T21:31:10.515Z,6.67
2022-11-27T21:33:38.359Z,6.64
2022-11-27T21:36:06.358Z,6.66
2022-11-27T21:38:35.232Z,6.60
2022-11-27T21:41:02.695Z,6.53
2022-11-27T21:43:31.549Z,6.46
2022-11-27T21:45:59.272Z,6.41
2022-11-27T21:48:26.850Z,6.48
2022-11-27T21:51:01.207Z,6.54
2022-11-27T21:53:30.046Z,6.61
2022-11-27T21:55:59.387Z,6.62
2022-11-27T21:58:28.437Z,6.62
2022-11-27T22:00:55.957Z,6.60
2022-11-27T22:03:23.622Z,6.70
2022-11-27T22:05:58.849Z,6.78
2022-11-27T22:08:26.415Z,6.74
2022-11-27T22:10:53.874Z,6.81
2022-11-27T22:13:22.787Z,6.90
2022-11-27T22:15:50.264Z,7.01
2022-11-27T22:18:18.075Z,7.00
2022-11-27T22:20:45.515Z,6.82
2022-11-27T22:23:12.940Z,6.82
2022-11-27T22:25:40.441Z,6.91
2022-11-27T22:28:08.371Z,6.80
2022-11-27T22:30:37.842Z,6.76
2022-11-27T22:33:05.322Z,6.63
2022-11-27T22:35:32.935Z,6.58
2022-11-27T22:38:00.401Z,6.60
2022-11-27T22:40:27.864Z,6.74
2022-11-27T22:42:55.328Z,6.73
2022-11-27T22:45:23.350Z,6.84
2022-11-27T22:47:53.268Z,6.85
2022-11-27T22:50:20.699Z,6.87
2022-11-27T22:52:48.560Z,6.85
2022-11-27T22:55:16.009Z,6.82
2022-11-27T22:57:43.507Z,6.81
2022-11-27T23:00:11.707Z,6.86
2022-11-27T23:02:39.554Z,6.74
2022-11-27T23:05:09.015Z,6.86
2022-11-27T23:07:36.689Z,6.82
2022-11-27T23:10:04.664Z,6.78
2022-11-27T23:12:32.116Z,6.82
2022-11-27T23:14:59.532Z,6.80
2022-11-27T23:17:26.977Z,6.84
2022-11-27T23:19:54.415Z,6.85
2022-11-27T23:22:23.178Z,6.91
2022-11-27T23:24:50.620Z,6.87
2022-11-27T23:27:18.035Z,6.88
2022-11-27T23:29:45.444Z,6.90
2022-11-27T23:32:12.952Z,7.00
2022-11-27T23:34:40.628Z,6.93
2022-11-27T23:37:08.191Z,6.97
2022-11-27T23:39:37.270Z,7.02
2022-11-27T23:42:04.967Z,6.95
2022-11-27T23:44:32.420Z,6.96
2022-11-27T23:46:59.832Z,6.91
2022-11-27T23:49:27.362Z,6.99
2022-11-27T23:51:54.762Z,6.92
2022-11-27T23:54:22.140Z,6.89
2022-11-27T23:56:51.647Z,6.83
2022-11-27T23:59:19.324Z,6.86
